createdAt,value
2018-03-31T00:00:30.217Z,93.00
2018-03-31T00:02:56.385Z,93.20
2018-03-31T00:05:24.070Z,93.20
2018-03-31T00:07:50.983Z,93.40
2018-03-31T00:10:17.144Z,93.40
2018-03-31T00:12:44.066Z,93.40
2018-03-31T00:15:11.719Z,93.70
2018-03-31T00:17:39.396Z,93.70
2018-03-31T00:20:05.568Z,93.70
2018-03-31T00:22:31.764Z,93.50
2018-03-31T00:24:58.681Z,93.40
2018-03-31T00:27:24.892Z,93.40
2018-03-31T00:29:51.047Z,93.80
2018-03-31T00:32:17.210Z,93.60
2018-03-31T00:34:43.378Z,93.60
2018-03-31T00:37:09.584Z,93.50
2018-03-31T00:39:35.758Z,93.40
2018-03-31T00:42:02.692Z,93.60
2018-03-31T00:44:30.362Z,94.20
2018-03-31T00:46:56.552Z,93.90
2018-03-31T00:49:23.503Z,94.00
2018-03-31T00:51:49.660Z,94.00
2018-03-31T00:54:16.580Z,93.70
2018-03-31T00:56:42.788Z,93.70
2018-03-31T00:59:08.963Z,93.60
2018-03-31T01:01:36.006Z,93.60
2018-03-31T01:04:02.949Z,93.60
2018-03-31T01:06:29.215Z,93.60
2018-03-31T01:08:55.412Z,93.60
2018-03-31T01:11:23.078Z,94.00
2018-03-31T01:13:50.031Z,93.90
2018-03-31T01:16:16.960Z,94.00
2018-03-31T01:18:43.176Z,94.00
2018-03-31T01:21:09.383Z,94.00
2018-03-31T01:23:35.577Z,94.20
2018-03-31T01:26:01.769Z,94.40
2018-03-31T01:28:28.713Z,94.50
2018-03-31T01:30:55.634Z,94.40
2018-03-31T01:33:21.797Z,94.40
2018-03-31T01:35:48.703Z,94.60
2018-03-31T01:38:14.931Z,94.60
2018-03-31T01:40:41.105Z,94.60
2018-03-31T01:43:08.023Z,94.40
2018-03-31T01:45:34.212Z,94.40
2018-03-31T01:48:00.408Z,94.40
2018-03-31T01:50:27.328Z,94.60
2018-03-31T01:52:53.523Z,94.60
2018-03-31T01:55:19.698Z,94.30
2018-03-31T01:57:46.620Z,94.00
2018-03-31T02:00:14.281Z,93.90
2018-03-31T02:02:40.461Z,93.90
2018-03-31T02:05:06.640Z,94.00
2018-03-31T02:07:32.889Z,94.00
2018-03-31T02:09:59.972Z,93.90
2018-03-31T02:12:26.171Z,93.90
2018-03-31T02:14:53.129Z,94.10
2018-03-31T02:17:19.313Z,94.10
2018-03-31T02:19:45.495Z,94.30
2018-03-31T02:22:11.690Z,94.30
2018-03-31T02:24:38.610Z,94.40
2018-03-31T02:27:06.292Z,94.50
2018-03-31T02:29:37.588Z,94.40
2018-03-31T02:32:03.764Z,94.70
2018-03-31T02:34:30.686Z,94.90
2018-03-31T02:36:56.867Z,94.90
2018-03-31T02:39:23.057Z,94.90
2018-03-31T02:41:49.226Z,95.00
2018-03-31T02:44:15.402Z,95.10
2018-03-31T02:46:47.372Z,94.90
2018-03-31T02:49:13.546Z,94.90
2018-03-31T02:51:39.732Z,94.80
2018-03-31T02:54:06.656Z,94.70
2018-03-31T02:56:32.819Z,94.70
2018-03-31T02:58:59.724Z,94.50
2018-03-31T03:01:25.899Z,94.50
2018-03-31T03:03:52.064Z,94.50
2018-03-31T03:06:18.224Z,94.50
2018-03-31T03:08:45.209Z,94.50
2018-03-31T03:11:11.465Z,94.40
2018-03-31T03:13:37.661Z,94.40
2018-03-31T03:16:03.844Z,94.40
2018-03-31T03:18:31.515Z,94.60
2018-03-31T03:20:58.432Z,94.70
2018-03-31T03:23:24.621Z,94.70
2018-03-31T03:25:50.796Z,94.60
2018-03-31T03:28:17.715Z,95.20
2018-03-31T03:30:43.904Z,95.20
2018-03-31T03:33:10.962Z,95.30
2018-03-31T03:35:37.162Z,95.30
2018-03-31T03:38:04.079Z,95.00
2018-03-31T03:40:30.303Z,95.00
2018-03-31T03:42:56.476Z,94.80
2018-03-31T03:45:22.660Z,94.80
2018-03-31T03:47:48.851Z,95.10
2018-03-31T03:50:15.041Z,95.00
2018-03-31T03:52:41.232Z,94.80
2018-03-31T03:55:07.394Z,95.40
2018-03-31T03:57:33.560Z,94.90
2018-03-31T03:59:59.723Z,95.00
2018-03-31T04:02:25.908Z,94.90
2018-03-31T04:04:52.078Z,94.80
2018-03-31T04:07:19.776Z,94.60
2018-03-31T04:10:00.593Z,94.60
2018-03-31T04:12:40.460Z,94.50
2018-03-31T04:15:06.730Z,94.80
2018-03-31T04:17:32.961Z,94.70
2018-03-31T04:19:59.889Z,94.60
2018-03-31T04:22:26.801Z,94.60
2018-03-31T04:24:52.971Z,94.50
2018-03-31T04:27:19.877Z,94.70
2018-03-31T04:29:46.060Z,94.70
2018-03-31T04:32:12.253Z,94.50
2018-03-31T04:34:39.181Z,94.40
2018-03-31T04:37:05.380Z,94.30
2018-03-31T04:39:31.580Z,94.30
2018-03-31T04:41:57.744Z,94.20
2018-03-31T04:44:23.972Z,94.10
2018-03-31T04:46:50.166Z,94.20
2018-03-31T04:49:16.375Z,94.40
2018-03-31T04:51:43.347Z,94.30
2018-03-31T04:54:09.545Z,94.20
2018-03-31T04:56:36.465Z,94.10
2018-03-31T04:59:03.384Z,94.40
2018-03-31T05:01:29.615Z,94.40
2018-03-31T05:03:55.820Z,94.20
2018-03-31T05:06:22.037Z,94.20
2018-03-31T05:08:48.256Z,94.20
2018-03-31T05:11:15.178Z,94.10
2018-03-31T05:13:41.395Z,94.10
2018-03-31T05:16:09.088Z,94.10
2018-03-31T05:18:36.101Z,94.30
2018-03-31T05:21:02.302Z,94.30
2018-03-31T05:23:28.504Z,94.30
2018-03-31T05:25:54.687Z,94.40
2018-03-31T05:28:22.445Z,94.20
2018-03-31T05:30:50.109Z,94.20
2018-03-31T05:33:17.800Z,94.20
2018-03-31T05:35:44.739Z,94.50
2018-03-31T05:38:11.648Z,94.40
2018-03-31T05:40:37.810Z,94.40
2018-03-31T05:43:04.720Z,94.50
2018-03-31T05:45:30.906Z,94.50
2018-03-31T05:47:57.105Z,94.30
2018-03-31T05:50:24.024Z,94.20
2018-03-31T05:52:50.248Z,94.40
2018-03-31T05:55:16.420Z,94.40
2018-03-31T05:57:43.344Z,94.40
2018-03-31T06:00:09.510Z,94.40
2018-03-31T06:02:35.689Z,94.60
2018-03-31T06:05:01.885Z,94.40
2018-03-31T06:07:28.090Z,94.60
2018-03-31T06:09:54.264Z,94.50
2018-03-31T06:12:20.452Z,94.40
2018-03-31T06:14:47.388Z,94.40
2018-03-31T06:17:13.610Z,94.40
2018-03-31T06:19:39.902Z,94.20
2018-03-31T06:22:06.073Z,93.40
2018-03-31T06:24:32.395Z,93.70
2018-03-31T06:26:58.572Z,93.50
2018-03-31T06:29:38.290Z,93.90
2018-03-31T06:32:18.120Z,93.70
2018-03-31T06:34:44.297Z,93.80
2018-03-31T06:37:10.479Z,93.70
2018-03-31T06:39:36.725Z,93.40
2018-03-31T06:42:02.913Z,93.60
2018-03-31T06:44:29.850Z,93.20
2018-03-31T06:46:56.768Z,93.60
2018-03-31T06:49:22.976Z,93.60
2018-03-31T06:51:49.142Z,93.30
2018-03-31T06:54:15.323Z,93.10
2018-03-31T06:56:41.510Z,93.00
2018-03-31T06:59:08.443Z,93.40
2018-03-31T07:01:34.612Z,93.40
2018-03-31T07:04:00.805Z,93.40
2018-03-31T07:06:27.725Z,93.70
2018-03-31T07:08:53.951Z,93.70
2018-03-31T07:11:20.127Z,93.40
2018-03-31T07:13:46.297Z,93.60
2018-03-31T07:16:12.478Z,93.10
2018-03-31T07:18:38.658Z,93.10
2018-03-31T07:21:04.846Z,92.80
2018-03-31T07:23:31.028Z,92.50
2018-03-31T07:25:57.215Z,92.90
2018-03-31T07:28:23.394Z,92.40
2018-03-31T07:30:50.466Z,92.00
2018-03-31T07:33:16.663Z,92.00
2018-03-31T07:35:43.639Z,91.40
2018-03-31T07:38:09.827Z,91.40
2018-03-31T07:40:36.060Z,91.50
2018-03-31T07:43:02.986Z,90.40
2018-03-31T07:45:29.161Z,90.40
2018-03-31T07:47:55.343Z,90.20
2018-03-31T07:50:21.541Z,89.70
2018-03-31T07:52:47.776Z,89.10
2018-03-31T07:55:13.953Z,89.60
2018-03-31T07:57:40.939Z,87.30
2018-03-31T08:00:07.111Z,87.30
2018-03-31T08:02:33.281Z,87.10
2018-03-31T08:04:59.453Z,86.60
2018-03-31T08:07:25.635Z,85.30
2018-03-31T08:09:51.816Z,82.60
2018-03-31T08:12:17.988Z,82.10
2018-03-31T08:14:44.185Z,82.10
2018-03-31T08:17:10.369Z,81.90
2018-03-31T08:19:36.547Z,81.50
2018-03-31T08:22:03.469Z,81.00
2018-03-31T08:24:29.693Z,80.90
2018-03-31T08:26:55.828Z,77.80
2018-03-31T08:29:22.782Z,74.40
2018-03-31T08:31:49.855Z,75.20
2018-03-31T08:34:16.030Z,75.20
2018-03-31T08:36:42.191Z,76.40
2018-03-31T08:39:09.104Z,78.10
2018-03-31T08:41:35.297Z,78.10
2018-03-31T08:44:01.517Z,78.90
2018-03-31T08:46:27.767Z,76.50
2018-03-31T08:48:53.948Z,76.70
2018-03-31T08:51:20.920Z,77.10
2018-03-31T08:53:47.117Z,77.00
2018-03-31T08:56:14.038Z,77.50
2018-03-31T08:58:40.239Z,77.50
2018-03-31T09:01:06.410Z,77.80
2018-03-31T09:03:33.358Z,74.50
2018-03-31T09:06:00.287Z,75.70
2018-03-31T09:08:26.466Z,75.70
2018-03-31T09:10:52.646Z,76.20
2018-03-31T09:13:18.820Z,77.80
2018-03-31T09:15:44.996Z,77.60
2018-03-31T09:18:11.195Z,76.90
2018-03-31T09:20:37.394Z,77.50
2018-03-31T09:23:03.629Z,77.80
2018-03-31T09:25:30.520Z,75.20
2018-03-31T09:27:56.705Z,75.20
2018-03-31T09:30:22.888Z,73.70
2018-03-31T09:32:49.077Z,72.90
2018-03-31T09:35:15.315Z,72.60
2018-03-31T09:37:41.487Z,73.50
2018-03-31T09:40:07.700Z,74.00
2018-03-31T09:42:34.640Z,73.80
2018-03-31T09:45:00.815Z,73.80
2018-03-31T09:47:27.138Z,75.20
2018-03-31T09:49:53.331Z,76.00
2018-03-31T09:52:20.279Z,74.90
2018-03-31T09:54:47.230Z,75.00
2018-03-31T09:57:13.456Z,75.00
2018-03-31T09:59:40.369Z,74.50
2018-03-31T10:02:06.553Z,74.40
2018-03-31T10:04:32.730Z,74.00
2018-03-31T10:06:58.905Z,74.70
2018-03-31T10:09:25.087Z,72.80
2018-03-31T10:11:51.263Z,72.30
2018-03-31T10:14:17.437Z,71.10
2018-03-31T10:16:43.616Z,70.50
2018-03-31T10:19:09.788Z,69.00
2018-03-31T10:21:35.967Z,69.40
2018-03-31T10:24:02.160Z,67.80
2018-03-31T10:26:28.348Z,68.10
2018-03-31T10:28:54.536Z,68.50
2018-03-31T10:31:21.450Z,69.30
2018-03-31T10:33:47.621Z,69.30
2018-03-31T10:36:13.898Z,70.40
2018-03-31T10:38:40.840Z,69.80
2018-03-31T10:41:07.045Z,69.20
2018-03-31T10:43:33.248Z,69.30
2018-03-31T10:45:59.450Z,69.70
2018-03-31T10:48:26.406Z,68.00
2018-03-31T10:50:53.367Z,66.70
2018-03-31T10:53:19.589Z,67.40
2018-03-31T10:55:45.776Z,68.60
2018-03-31T10:58:11.963Z,67.30
2018-03-31T11:00:38.151Z,65.50
2018-03-31T11:03:05.094Z,64.20
2018-03-31T11:05:32.051Z,63.80
2018-03-31T11:07:58.250Z,63.70
2018-03-31T11:10:25.911Z,64.80
2018-03-31T11:12:52.102Z,64.90
2018-03-31T11:15:18.287Z,65.00
2018-03-31T11:17:44.476Z,66.30
2018-03-31T11:20:11.931Z,65.00
2018-03-31T11:22:38.900Z,64.60
2018-03-31T11:25:05.088Z,63.70
2018-03-31T11:27:31.266Z,60.70
2018-03-31T11:29:57.460Z,63.40
2018-03-31T11:32:23.689Z,64.30
2018-03-31T11:34:49.909Z,63.70
2018-03-31T11:37:16.250Z,63.10
2018-03-31T11:39:42.455Z,63.60
2018-03-31T11:42:08.654Z,63.20
2018-03-31T11:44:34.884Z,62.90
2018-03-31T11:47:01.833Z,62.80
2018-03-31T11:49:28.011Z,62.80
2018-03-31T11:51:54.188Z,64.80
2018-03-31T11:54:20.541Z,64.00
2018-03-31T11:56:46.859Z,61.20
2018-03-31T11:59:13.060Z,63.50
2018-03-31T12:01:40.016Z,62.70
2018-03-31T12:04:06.998Z,63.50
2018-03-31T12:06:33.188Z,63.60
2018-03-31T12:09:00.109Z,66.10
2018-03-31T12:11:27.078Z,66.00
2018-03-31T12:13:53.988Z,69.20
2018-03-31T12:16:20.176Z,69.30
2018-03-31T12:18:46.389Z,72.60
2018-03-31T12:21:13.311Z,72.80
2018-03-31T12:23:39.500Z,72.80
2018-03-31T12:26:05.668Z,73.90
2018-03-31T12:28:32.616Z,73.10
2018-03-31T12:30:59.560Z,73.20
2018-03-31T12:33:27.439Z,72.10
2018-03-31T12:35:54.362Z,73.20
2018-03-31T12:38:20.575Z,73.20
2018-03-31T12:40:46.766Z,75.10
2018-03-31T12:43:12.970Z,75.70
2018-03-31T12:45:39.170Z,74.60
2018-03-31T12:48:05.396Z,76.20
2018-03-31T12:50:32.345Z,77.40
2018-03-31T12:52:59.299Z,76.60
2018-03-31T12:55:25.505Z,77.10
2018-03-31T12:57:51.709Z,78.30
2018-03-31T13:00:18.633Z,80.90
2018-03-31T13:02:44.962Z,80.90
2018-03-31T13:05:11.141Z,82.70
2018-03-31T13:07:37.314Z,83.70
2018-03-31T13:10:03.500Z,84.20
2018-03-31T13:12:30.803Z,85.20
2018-03-31T13:14:57.022Z,85.80
2018-03-31T13:17:23.222Z,85.30
2018-03-31T13:19:49.468Z,86.30
2018-03-31T13:22:16.392Z,87.20
2018-03-31T13:24:42.608Z,87.20
2018-03-31T13:27:08.811Z,87.10
2018-03-31T13:29:34.989Z,87.30
2018-03-31T13:32:02.069Z,86.70
2018-03-31T13:34:28.264Z,86.70
2018-03-31T13:36:55.200Z,87.10
2018-03-31T13:39:22.189Z,87.80
2018-03-31T13:41:48.403Z,87.70
2018-03-31T13:44:14.598Z,88.30
2018-03-31T13:46:41.507Z,89.50
2018-03-31T13:49:07.695Z,89.40
2018-03-31T13:51:33.889Z,89.50
2018-03-31T13:54:00.821Z,90.10
2018-03-31T13:56:27.003Z,89.70
2018-03-31T13:58:53.193Z,89.30
2018-03-31T14:01:19.391Z,89.50
2018-03-31T14:03:45.560Z,89.60
2018-03-31T14:06:12.628Z,90.00
2018-03-31T14:08:38.806Z,90.00
2018-03-31T14:11:05.017Z,89.60
2018-03-31T14:13:31.228Z,90.30
2018-03-31T14:15:57.411Z,90.80
2018-03-31T14:18:24.339Z,90.60
2018-03-31T14:20:50.520Z,90.60
2018-03-31T14:23:16.716Z,90.40
2018-03-31T14:25:43.644Z,90.50
2018-03-31T14:28:09.828Z,90.50
2018-03-31T14:30:36.028Z,90.40
2018-03-31T14:33:02.281Z,90.20
2018-03-31T14:35:29.443Z,90.10
2018-03-31T14:37:56.673Z,90.30
2018-03-31T14:40:22.887Z,90.40
2018-03-31T14:42:49.821Z,90.40
2018-03-31T14:45:16.755Z,90.50
2018-03-31T14:47:42.944Z,90.50
2018-03-31T14:50:10.086Z,90.70
2018-03-31T14:52:36.605Z,91.20
2018-03-31T14:55:03.703Z,91.30
2018-03-31T14:57:29.879Z,91.30
2018-03-31T14:59:56.081Z,91.80
2018-03-31T15:02:23.056Z,92.00
2018-03-31T15:04:49.271Z,92.00
2018-03-31T15:07:16.598Z,92.10
2018-03-31T15:09:43.561Z,92.40
2018-03-31T15:12:09.769Z,92.40
2018-03-31T15:14:36.056Z,92.50
2018-03-31T15:17:02.308Z,92.60
2018-03-31T15:19:29.472Z,92.70
2018-03-31T15:21:55.652Z,92.50
2018-03-31T15:24:21.831Z,92.60
2018-03-31T15:26:48.819Z,92.40
2018-03-31T15:29:15.000Z,92.70
2018-03-31T15:31:41.965Z,92.20
2018-03-31T15:34:08.234Z,92.20
2018-03-31T15:36:34.416Z,92.30
2018-03-31T15:39:01.356Z,92.30
2018-03-31T15:41:27.541Z,92.30
2018-03-31T15:43:53.718Z,92.10
2018-03-31T15:46:20.637Z,91.90
2018-03-31T15:48:46.815Z,91.90
2018-03-31T15:51:13.000Z,92.00
2018-03-31T15:53:39.185Z,92.10
2018-03-31T15:56:05.375Z,92.00
2018-03-31T15:58:32.416Z,92.20
2018-03-31T16:00:59.320Z,92.50
2018-03-31T16:03:25.486Z,92.20
2018-03-31T16:05:52.408Z,91.80
2018-03-31T16:08:18.593Z,91.80
2018-03-31T16:10:44.769Z,91.60
2018-03-31T16:13:10.953Z,91.60
2018-03-31T16:15:37.124Z,91.60
2018-03-31T16:18:04.807Z,91.80
2018-03-31T16:20:32.543Z,91.60
2018-03-31T16:22:58.782Z,91.60
2018-03-31T16:25:25.004Z,91.70
2018-03-31T16:27:51.243Z,92.00
2018-03-31T16:30:17.739Z,91.80
2018-03-31T16:32:43.911Z,92.40
2018-03-31T16:35:10.892Z,92.40
2018-03-31T16:37:37.074Z,92.40
2018-03-31T16:40:03.239Z,92.40
2018-03-31T16:42:29.438Z,92.30
2018-03-31T16:44:56.378Z,92.40
2018-03-31T16:47:22.542Z,92.40
2018-03-31T16:49:48.712Z,92.40
2018-03-31T16:52:14.903Z,92.50
2018-03-31T16:54:41.112Z,92.70
2018-03-31T16:57:07.314Z,92.70
2018-03-31T16:59:34.246Z,92.50
2018-03-31T17:02:00.415Z,92.40
2018-03-31T17:04:26.599Z,92.40
2018-03-31T17:06:52.790Z,92.20
2018-03-31T17:09:19.004Z,92.30
2018-03-31T17:11:45.175Z,92.00
2018-03-31T17:14:11.389Z,91.30
2018-03-31T17:16:37.599Z,91.10
2018-03-31T17:19:03.790Z,91.00
2018-03-31T17:21:30.702Z,91.00
2018-03-31T17:23:56.907Z,90.90
2018-03-31T17:26:23.124Z,90.90
2018-03-31T17:28:49.300Z,90.90
2018-03-31T17:31:15.549Z,90.80
2018-03-31T17:33:42.511Z,91.50
2018-03-31T17:36:08.685Z,91.50
2018-03-31T17:38:34.864Z,91.50
2018-03-31T17:41:01.104Z,91.50
2018-03-31T17:43:27.315Z,91.70
2018-03-31T17:45:53.550Z,91.70
2018-03-31T17:48:19.989Z,91.70
2018-03-31T17:50:46.166Z,91.80
2018-03-31T17:53:12.359Z,92.00
2018-03-31T17:55:38.546Z,92.00
2018-03-31T17:58:05.668Z,92.00
2018-03-31T18:00:32.929Z,92.00
2018-03-31T18:02:59.118Z,92.00
2018-03-31T18:05:25.299Z,92.00
2018-03-31T18:07:52.231Z,91.80
2018-03-31T18:10:19.158Z,91.90
2018-03-31T18:12:45.355Z,91.90
2018-03-31T18:15:11.574Z,91.80
2018-03-31T18:17:37.785Z,91.80
2018-03-31T18:20:04.712Z,91.70
2018-03-31T18:22:31.633Z,91.80
2018-03-31T18:24:57.804Z,91.70
2018-03-31T18:27:23.998Z,91.90
2018-03-31T18:29:50.213Z,91.80
2018-03-31T18:32:16.381Z,91.70
2018-03-31T18:34:43.296Z,91.80
2018-03-31T18:37:09.522Z,91.80
2018-03-31T18:39:36.459Z,92.00
2018-03-31T18:42:03.616Z,91.80
2018-03-31T18:44:30.739Z,92.00
2018-03-31T18:46:56.931Z,91.70
2018-03-31T18:49:23.115Z,92.10
2018-03-31T18:51:49.304Z,91.60
2018-03-31T18:54:15.496Z,91.60
2018-03-31T18:56:42.716Z,91.60
2018-03-31T18:59:08.944Z,91.60
2018-03-31T19:01:35.120Z,91.60
2018-03-31T19:04:02.079Z,91.70
2018-03-31T19:06:29.000Z,91.70
2018-03-31T19:08:55.917Z,91.70
2018-03-31T19:11:22.090Z,91.70
2018-03-31T19:13:48.260Z,91.80
2018-03-31T19:16:14.477Z,91.90
2018-03-31T19:18:40.666Z,91.80
2018-03-31T19:21:06.892Z,91.80
2018-03-31T19:23:33.083Z,91.90
2018-03-31T19:25:59.255Z,91.50
2018-03-31T19:28:25.436Z,91.50
2018-03-31T19:30:51.613Z,91.40
2018-03-31T19:33:17.860Z,91.50
2018-03-31T19:35:50.770Z,91.60
2018-03-31T19:38:16.940Z,91.60
2018-03-31T19:40:43.105Z,91.70
2018-03-31T19:43:09.298Z,91.70
2018-03-31T19:45:35.468Z,91.90
2018-03-31T19:48:01.648Z,91.90
2018-03-31T19:50:27.913Z,91.80
2018-03-31T19:52:54.085Z,91.80
2018-03-31T19:55:21.098Z,92.20
2018-03-31T19:57:47.324Z,92.20
2018-03-31T20:00:13.611Z,92.10
2018-03-31T20:02:39.791Z,92.50
2018-03-31T20:05:07.443Z,92.50
2018-03-31T20:07:33.620Z,92.40
2018-03-31T20:10:00.536Z,92.50
2018-03-31T20:12:27.468Z,92.60
2018-03-31T20:14:53.650Z,92.40
2018-03-31T20:17:19.816Z,92.40
2018-03-31T20:19:46.768Z,92.70
2018-03-31T20:22:14.420Z,92.40
2018-03-31T20:24:40.603Z,92.40
2018-03-31T20:27:06.829Z,92.40
2018-03-31T20:29:32.991Z,92.50
2018-03-31T20:31:59.178Z,92.40
2018-03-31T20:34:25.418Z,92.40
2018-03-31T20:36:51.594Z,92.20
2018-03-31T20:39:19.247Z,92.10
2018-03-31T20:41:45.429Z,92.10
2018-03-31T20:44:11.609Z,91.90
2018-03-31T20:46:39.267Z,91.70
2018-03-31T20:49:05.442Z,91.70
2018-03-31T20:51:31.704Z,91.60
2018-03-31T20:53:57.872Z,91.70
2018-03-31T20:56:24.971Z,91.80
2018-03-31T20:58:51.153Z,91.80
2018-03-31T21:01:18.156Z,91.70
2018-03-31T21:03:44.334Z,91.60
2018-03-31T21:06:11.260Z,91.70
2018-03-31T21:08:37.419Z,91.70
2018-03-31T21:11:03.611Z,92.10
2018-03-31T21:13:29.776Z,92.10
2018-03-31T21:15:55.940Z,92.10
2018-03-31T21:18:22.112Z,92.30
2018-03-31T21:20:49.026Z,92.50
2018-03-31T21:23:16.681Z,92.30
2018-03-31T21:25:42.844Z,92.20
2018-03-31T21:28:09.763Z,92.00
2018-03-31T21:30:36.738Z,91.90
2018-03-31T21:33:03.659Z,92.10
2018-03-31T21:35:29.859Z,92.10
2018-03-31T21:37:56.040Z,92.00
2018-03-31T21:40:22.212Z,92.00
2018-03-31T21:42:48.387Z,92.00
2018-03-31T21:45:15.286Z,92.50
2018-03-31T21:47:41.460Z,92.50
2018-03-31T21:50:07.643Z,92.50
2018-03-31T21:52:33.938Z,92.50
2018-03-31T21:55:00.124Z,92.50
2018-03-31T21:57:27.060Z,92.70
2018-03-31T21:59:53.241Z,92.30
2018-03-31T22:02:19.566Z,92.50
2018-03-31T22:04:45.742Z,92.40
2018-03-31T22:07:13.414Z,92.30
2018-03-31T22:09:39.623Z,92.30
2018-03-31T22:12:05.802Z,92.20
2018-03-31T22:14:37.976Z,92.10
2018-03-31T22:17:04.152Z,92.00
2018-03-31T22:19:30.756Z,92.10
2018-03-31T22:21:56.923Z,92.00
2018-03-31T22:24:23.093Z,92.20
2018-03-31T22:26:49.283Z,92.00
2018-03-31T22:29:15.450Z,91.80
2018-03-31T22:31:41.621Z,91.70
2018-03-31T22:34:07.806Z,91.50
2018-03-31T22:36:33.975Z,91.30
2018-03-31T22:39:00.913Z,90.90
2018-03-31T22:41:27.092Z,90.80
2018-03-31T22:43:53.283Z,90.70
2018-03-31T22:46:19.451Z,90.60
2018-03-31T22:48:45.629Z,90.60
2018-03-31T22:51:11.823Z,90.40
2018-03-31T22:53:38.074Z,90.50
2018-03-31T22:56:04.265Z,90.40
2018-03-31T22:58:30.455Z,90.60
2018-03-31T23:00:57.382Z,90.70
2018-03-31T23:03:23.674Z,91.00
2018-03-31T23:05:49.872Z,90.80
2018-03-31T23:08:16.773Z,91.10
2018-03-31T23:10:42.950Z,91.10
2018-03-31T23:13:09.864Z,91.20
2018-03-31T23:15:37.507Z,91.40
2018-03-31T23:18:03.696Z,91.40
2018-03-31T23:20:29.944Z,91.30
2018-03-31T23:22:56.126Z,91.30
2018-03-31T23:25:23.055Z,91.60
2018-03-31T23:27:50.706Z,91.50
2018-03-31T23:30:17.631Z,91.40
2018-03-31T23:32:43.820Z,91.40
2018-03-31T23:35:09.988Z,91.30
2018-03-31T23:37:36.156Z,91.10
2018-03-31T23:40:03.076Z,90.80
2018-03-31T23:42:29.257Z,90.80
2018-03-31T23:44:55.436Z,90.80
2018-03-31T23:47:23.128Z,90.40
2018-03-31T23:49:50.043Z,90.10
2018-03-31T23:52:17.694Z,89.80
2018-03-31T23:54:43.868Z,89.70
2018-03-31T23:57:10.040Z,89.70
2018-03-31T23:59:36.222Z,89.50
